Terminal Aerodrome Forecast
Issued by NWS Goodland, KS

Home | Current Version | Previous Version | Text Only | Print | Product List | Glossary On
Versions: 1 2 3 4 5 6 7 8 9 10 11 12 13 14
000
FTUS43 KGLD 201140
TAFGLD
TAF
KGLD 201140Z 2012/2112 17013G24KT P6SM SCT120 WS020/19040KT
     FM201500 18018G26KT P6SM SCT120 WS020/20030KT
     FM201600 19018G26KT P6SM SCT110
     FM210300 19016G24KT P6SM FEW250 WS020/20035KT
     FM210500 20018KT P6SM FEW250 WS020/23040KT
     FM211000 33015G23KT P6SM FEW250 WS020/34035KT=

USA.gov is the U.S. government's official web portal to all federal, state and local government web resources and services.